Time;durP1;ratioP1;P1;durP2;ratioP2;P2;SDS_P1;SDS_P2;PMS_P1;PMS_P2;Temp;Humidity;BMP_temperature;BMP_pressure;BME280_temperature;BME280_humidity;BME280_pressure;Samples;Min_cycle;Max_cycle;Signal;HPM_P1;HPM_P2
2021/04/25 00:00:50;;;;;;;20.75;13.05;;;10.50;99.90;;;10.77;59.11;102716.84;5075971;28;20045;-76
2021/04/25 00:03:17;;;;;;;20.40;13.10;;;10.50;99.90;;;10.78;58.79;102717.75;5076207;28;20054;-76
2021/04/25 00:05:45;;;;;;;18.67;13.02;;;10.50;99.90;;;10.79;58.44;102708.94;5076403;28;20044;-75
2021/04/25 00:08:12;;;;;;;20.48;13.40;;;10.50;99.90;;;10.78;58.88;102720.41;5058167;28;20500;-76
2021/04/25 00:10:42;;;;;;;18.17;12.20;;;10.40;99.90;;;10.82;58.99;102727.53;5076289;28;20052;-77
2021/04/25 00:13:09;;;;;;;21.27;12.60;;;10.50;99.90;;;10.81;58.82;102724.03;5057950;28;20557;-76
2021/04/25 00:15:38;;;;;;;14.77;11.75;;;10.50;99.90;;;10.85;58.21;102725.88;5075644;28;20056;-76
2021/04/25 00:18:05;;;;;;;18.77;13.05;;;10.50;99.90;;;10.92;58.44;102720.75;5075957;28;20044;-76
2021/04/25 00:20:33;;;;;;;22.35;12.75;;;10.60;99.90;;;10.89;58.22;102724.22;5075580;28;20056;-76
2021/04/25 00:23:01;;;;;;;15.60;11.38;;;10.60;99.90;;;10.91;57.63;102714.53;5075540;28;20083;-76
2021/04/25 00:25:28;;;;;;;19.48;11.80;;;10.60;99.90;;;10.79;57.69;102701.00;5075475;28;20504;-76
2021/04/25 00:27:56;;;;;;;17.10;11.75;;;10.60;99.90;;;10.86;57.62;102713.53;5075617;28;20052;-76
2021/04/25 00:30:23;;;;;;;20.25;11.75;;;10.50;99.90;;;10.90;57.87;102718.94;5075667;28;20457;-76
2021/04/25 00:32:52;;;;;;;18.17;12.23;;;10.50;99.90;;;10.13;57.91;102590.88;5075254;28;20510;-76
2021/04/25 00:35:23;;;;;;;22.88;12.65;;;10.50;99.90;;;10.80;58.13;102724.88;5075659;28;20051;-76
2021/04/25 00:37:50;;;;;;;20.15;12.13;;;10.50;99.90;;;10.76;58.13;102717.69;5075741;28;20045;-76
2021/04/25 00:40:20;;;;;;;15.82;12.18;;;10.50;99.90;;;10.84;58.09;102715.22;5075148;28;20140;-76
2021/04/25 00:42:48;;;;;;;22.63;12.27;;;10.50;99.90;;;10.81;58.35;102708.13;5075492;28;20040;-76
2021/04/25 00:45:18;;;;;;;20.70;12.77;;;10.50;99.90;;;10.76;58.67;102709.75;5075445;28;20282;-76
2021/04/25 00:47:47;;;;;;;18.65;11.98;;;10.40;99.90;;;10.77;58.39;102710.66;5075099;28;20055;-76
2021/04/25 00:50:20;;;;;;;18.58;12.00;;;10.50;99.90;;;10.78;58.16;102699.22;5057436;28;20040;-76
2021/04/25 00:52:48;;;;;;;17.35;12.50;;;10.40;99.90;;;10.78;58.50;102713.34;5075260;28;20136;-76
2021/04/25 00:55:18;;;;;;;19.92;13.13;;;10.50;99.90;;;10.64;59.00;102700.63;5073897;28;20408;-76
2021/04/25 00:57:47;;;;;;;19.88;13.23;;;10.30;99.90;;;10.69;58.77;102705.19;5075538;28;20098;-76
2021/04/25 01:00:16;;;;;;;19.23;13.98;;;10.40;99.90;;;10.78;59.02;102704.53;5075224;28;20040;-77
2021/04/25 01:02:43;;;;;;;20.65;12.75;;;10.40;99.90;;;10.77;58.79;102698.34;5074796;28;20541;-76
2021/04/25 01:05:14;;;;;;;20.60;12.23;;;10.40;99.90;;;10.67;58.80;102704.25;5074582;28;20454;-76
2021/04/25 01:07:43;;;;;;;20.23;13.48;;;10.30;99.90;;;10.63;59.04;102710.31;5075048;28;20118;-76
2021/04/25 01:10:13;;;;;;;22.13;13.30;;;10.30;99.90;;;10.69;59.01;102706.94;5074932;28;20464;-77
2021/04/25 01:12:41;;;;;;;21.03;13.73;;;10.30;99.90;;;10.68;59.36;102710.44;5074873;28;20048;-76
2021/04/25 01:15:11;;;;;;;17.27;12.85;;;10.30;99.90;;;10.49;59.40;102685.25;5074815;28;20050;-76
2021/04/25 01:17:41;;;;;;;21.80;13.97;;;10.30;99.90;;;10.58;59.08;102705.78;5056576;28;20044;-77
2021/04/25 01:20:13;;;;;;;17.27;13.02;;;10.30;99.90;;;10.52;59.43;102697.69;5073772;28;20053;-76
2021/04/25 01:22:41;;;;;;;20.13;12.75;;;10.20;99.90;;;10.51;59.44;102701.19;5074549;28;20557;-77
2021/04/25 01:25:12;;;;;;;21.35;12.20;;;10.20;99.90;;;10.44;59.43;102705.44;5074733;28;20094;-78
2021/04/25 01:27:40;;;;;;;20.52;12.50;;;10.20;99.90;;;10.45;59.78;102698.41;5074741;28;20155;-78
2021/04/25 01:30:10;;;;;;;19.08;12.32;;;10.10;99.90;;;10.51;59.18;102682.69;5074852;28;20480;-78
2021/04/25 01:32:40;;;;;;;;;;;10.20;99.90;;;10.33;58.99;102668.97;5074968;28;20458;-78
2021/04/25 01:35:10;;;;;;;21.13;12.70;;;10.20;99.90;;;10.31;59.93;102692.75;5074040;28;19930;-78
2021/04/25 01:37:38;;;;;;;18.47;12.50;;;10.10;99.90;;;10.41;59.19;102692.13;5074422;28;20041;-78
2021/04/25 01:40:08;;;;;;;18.70;12.77;;;10.10;99.90;;;10.38;59.23;102694.69;5073937;28;20300;-78
2021/04/25 01:42:36;;;;;;;;;;;10.10;99.90;;;10.34;59.80;102686.63;5074546;28;20102;-78
2021/04/25 01:45:05;;;;;;;22.13;13.52;;;10.10;99.90;;;10.29;59.90;102682.97;5074369;28;19970;-78
2021/04/25 01:47:32;;;;;;;18.65;12.73;;;10.10;99.90;;;10.32;59.63;102683.94;5073695;28;20097;-78
2021/04/25 01:50:00;;;;;;;22.67;13.07;;;10.00;99.90;;;10.38;59.75;102691.13;5073768;28;20049;-78
2021/04/25 01:52:27;;;;;;;18.13;12.82;;;10.00;99.90;;;10.26;59.92;102664.41;5074180;28;20049;-78
2021/04/25 01:54:54;;;;;;;23.38;14.45;;;10.10;99.90;;;10.44;59.45;102686.91;5056191;28;20458;-77
2021/04/25 01:57:23;;;;;;;20.77;12.65;;;10.10;99.90;;;10.36;59.73;102682.25;5056142;28;20106;-78
2021/04/25 01:59:50;;;;;;;21.85;14.57;;;10.10;99.90;;;10.42;59.78;102687.72;5074117;28;20049;-78
2021/04/25 02:02:17;;;;;;;19.75;13.45;;;10.10;99.90;;;10.40;59.71;102692.06;5056309;28;20044;-78
2021/04/25 02:04:45;;;;;;;26.05;14.13;;;10.10;99.90;;;9.61;59.97;102575.41;5074054;28;20407;-78
2021/04/25 02:07:12;;;;;;;22.40;13.23;;;10.10;99.90;;;10.30;60.35;102687.44;5073758;28;20072;-78
2021/04/25 02:09:40;;;;;;;26.05;14.55;;;10.10;99.90;;;10.33;60.73;102684.84;5073856;28;20047;-78
2021/04/25 02:12:08;;;;;;;20.23;13.50;;;10.10;99.90;;;10.30;60.38;102695.38;5073549;28;20094;-78
2021/04/25 02:14:36;;;;;;;20.30;12.73;;;10.10;99.90;;;9.99;60.80;102652.19;5073872;28;20048;-77
2021/04/25 02:17:04;;;;;;;20.70;12.52;;;10.00;99.90;;;10.28;60.75;102689.13;5073365;28;20044;-78
2021/04/25 02:19:31;;;;;;;19.80;12.32;;;10.00;99.90;;;10.26;60.44;102691.72;5073598;28;20058;-77
2021/04/25 02:21:59;;;;;;;18.23;12.40;;;10.00;99.90;;;10.27;60.06;102696.16;5055554;28;20132;-78
2021/04/25 02:24:26;;;;;;;17.85;11.88;;;10.00;99.90;;;10.22;59.96;102694.28;5073262;28;20045;-78
2021/04/25 02:26:54;;;;;;;20.33;11.60;;;10.10;99.90;;;10.18;60.05;102684.47;5073181;28;20048;-77
2021/04/25 02:29:21;;;;;;;17.35;10.45;;;10.00;99.90;;;10.24;59.74;102698.72;5073467;28;20101;-78
2021/04/25 02:31:49;;;;;;;16.98;11.88;;;10.00;99.90;;;10.21;59.43;102690.72;5073401;28;20045;-78
2021/04/25 02:34:17;;;;;;;18.95;10.98;;;10.00;99.90;;;10.26;59.35;102693.50;5072854;28;20110;-77
2021/04/25 02:36:45;;;;;;;16.25;10.35;;;10.10;99.90;;;10.20;59.21;102693.31;5073052;28;20411;-77
2021/04/25 02:39:12;;;;;;;14.43;10.07;;;10.00;99.90;;;10.19;59.68;102691.53;5073215;28;20044;-78
2021/04/25 02:41:40;;;;;;;15.73;9.57;;;9.90;99.90;;;10.12;59.76;102690.50;5055100;28;20079;-78
2021/04/25 02:44:07;;;;;;;13.73;8.70;;;9.90;99.90;;;9.99;59.65;102685.66;5073193;28;20040;-78
2021/04/25 02:46:39;;;;;;;14.63;10.30;;;9.80;99.90;;;10.06;59.61;102692.03;5073125;28;20070;-77
2021/04/25 02:49:07;;;;;;;13.73;9.40;;;9.80;99.90;;;9.82;59.68;102649.97;5073131;28;20045;-78
2021/04/25 02:51:34;;;;;;;13.57;9.13;;;9.90;99.90;;;10.15;59.33;102702.88;5072756;28;20052;-78
2021/04/25 02:54:02;;;;;;;13.50;9.55;;;9.90;99.90;;;10.17;59.11;102693.22;5073041;28;20052;-78
2021/04/25 02:56:30;;;;;;;12.57;9.43;;;9.90;99.90;;;10.24;59.16;102695.19;5072824;28;20059;-77
2021/04/25 02:58:57;;;;;;;13.95;8.73;;;10.00;99.90;;;10.21;58.55;102681.88;5073086;28;20044;-78
2021/04/25 03:01:25;;;;;;;13.00;9.48;;;10.00;99.90;;;10.23;58.19;102685.47;5073014;28;20044;-78
2021/04/25 03:03:52;;;;;;;11.45;7.60;;;10.00;99.90;;;10.23;58.06;102677.53;5071661;28;20151;-78
2021/04/25 03:06:21;;;;;;;11.00;8.75;;;10.00;99.90;;;10.08;57.71;102645.38;5072913;28;20448;-77
2021/04/25 03:08:48;;;;;;;13.57;8.75;;;10.10;99.90;;;10.24;57.04;102679.34;5072936;28;20102;-78
2021/04/25 03:11:16;;;;;;;10.00;8.10;;;10.00;99.90;;;10.29;57.41;102683.88;5072870;28;20052;-78
2021/04/25 03:13:44;;;;;;;11.90;9.00;;;10.00;99.90;;;10.33;56.74;102687.50;5073902;28;20052;-78
2021/04/25 03:16:11;;;;;;;13.40;8.70;;;10.10;99.90;;;10.28;56.64;102679.44;5073235;28;20106;-77
2021/04/25 03:18:39;;;;;;;10.13;8.30;;;10.10;99.90;;;10.31;56.52;102681.28;5072891;28;20068;-78
2021/04/25 03:21:07;;;;;;;10.18;8.02;;;10.00;99.90;;;10.28;56.17;102673.28;5072922;28;20041;-78
2021/04/25 03:23:35;;;;;;;12.73;8.63;;;10.00;99.90;;;10.30;56.25;102695.38;5073032;28;20131;-78
2021/04/25 03:26:03;;;;;;;11.82;8.27;;;10.00;99.90;;;10.29;56.06;102677.69;5073080;28;20045;-78
2021/04/25 03:28:30;;;;;;;13.82;9.05;;;10.00;99.90;;;10.32;55.53;102675.09;5072863;28;20036;-78
2021/04/25 03:30:58;;;;;;;8.73;7.85;;;10.00;99.90;;;10.36;55.44;102671.69;5073542;28;20048;-78
2021/04/25 03:33:25;;;;;;;11.85;8.27;;;10.00;99.90;;;10.39;55.11;102677.97;5055794;28;20396;-77
2021/04/25 03:35:53;;;;;;;12.68;7.82;;;10.10;99.90;;;10.41;54.80;102683.31;5056005;28;20522;-78
2021/04/25 03:38:20;;;;;;;11.80;7.65;;;10.10;99.90;;;10.47;54.88;102673.75;5073269;28;20075;-78
2021/04/25 03:40:49;;;;;;;12.02;8.35;;;10.20;99.90;;;10.27;54.74;102655.59;5073163;28;20466;-78
2021/04/25 03:43:16;;;;;;;11.43;8.50;;;10.10;99.90;;;10.44;54.67;102665.75;5072583;28;20093;-78
2021/04/25 03:45:43;;;;;;;10.85;7.57;;;10.20;99.90;;;10.46;54.53;102677.25;5072513;28;20241;-78
2021/04/25 03:48:11;;;;;;;11.60;8.30;;;10.20;99.90;;;10.37;53.94;102644.41;5072322;28;20051;-78
2021/04/25 03:50:38;;;;;;;11.80;8.18;;;10.20;99.90;;;10.45;53.93;102662.22;5072637;28;20036;-78
2021/04/25 03:53:06;;;;;;;13.82;8.50;;;10.20;99.90;;;10.54;53.88;102661.56;5072718;28;20048;-78
2021/04/25 03:55:33;;;;;;;10.10;7.85;;;10.20;99.90;;;10.58;54.09;102667.00;5072175;28;20102;-78
2021/04/25 03:58:01;;;;;;;9.55;7.75;;;10.30;99.90;;;10.54;53.78;102659.84;5072176;28;20048;-78
2021/04/25 04:00:29;;;;;;;12.50;8.57;;;10.30;99.90;;;10.63;53.93;102664.44;5072393;28;20109;-78
2021/04/25 04:02:57;;;;;;;10.57;7.70;;;10.30;99.90;;;10.66;53.92;102670.72;5054261;28;20101;-78
2021/04/25 04:05:25;;;;;;;11.95;8.45;;;10.40;99.90;;;10.60;53.51;102672.31;5072322;28;20388;-78
2021/04/25 04:07:52;;;;;;;13.65;9.02;;;10.30;99.90;;;10.64;53.83;102675.09;5072284;28;20048;-78
2021/04/25 04:10:20;;;;;;;13.45;8.20;;;10.40;99.90;;;10.63;53.57;102662.69;5072117;28;20565;-78
2021/04/25 04:12:47;;;;;;;10.73;8.68;;;10.40;99.90;;;10.69;53.87;102668.13;5075105;28;20376;-78
2021/04/25 04:15:15;;;;;;;13.55;8.57;;;10.40;99.90;;;10.42;53.83;102654.22;5075682;28;20463;-77
2021/04/25 04:17:43;;;;;;;13.00;8.55;;;10.30;99.90;;;10.40;54.53;102634.78;5075706;28;20044;-78
2021/04/25 04:20:12;;;;;;;12.65;9.27;;;10.30;99.90;;;10.48;54.95;102654.38;5076023;28;20463;-78
2021/04/25 04:22:39;;;;;;;15.77;9.55;;;10.30;99.90;;;10.49;54.63;102644.72;5075922;28;20055;-77
2021/04/25 04:25:08;;;;;;;13.05;8.88;;;10.30;99.90;;;10.53;54.99;102662.44;5074585;28;20049;-78
2021/04/25 04:27:36;;;;;;;15.93;9.25;;;10.30;99.90;;;10.54;54.92;102659.84;5075720;28;20053;-78
2021/04/25 04:30:05;;;;;;;11.75;8.15;;;10.30;99.90;;;9.86;54.85;102541.72;5075451;28;20052;-78
2021/04/25 04:32:33;;;;;;;12.95;8.50;;;10.30;99.90;;;10.55;54.72;102660.72;5075431;28;20407;-77
2021/04/25 04:35:01;;;;;;;18.35;9.02;;;10.30;99.90;;;10.45;55.01;102659.59;5075801;28;20080;-77
2021/04/25 04:37:29;;;;;;;13.45;8.73;;;10.30;99.90;;;10.44;55.73;102665.75;5075848;28;20049;-78
2021/04/25 04:39:56;;;;;;;17.88;9.35;;;10.20;99.90;;;10.48;55.67;102664.97;5075570;28;20562;-77
2021/04/25 04:42:24;;;;;;;13.98;9.10;;;10.20;99.90;;;10.29;55.41;102638.91;5075572;28;20048;-78
2021/04/25 04:44:51;;;;;;;14.63;9.23;;;10.20;99.90;;;10.50;55.76;102663.25;5075508;28;20508;-77
2021/04/25 04:47:19;;;;;;;15.82;9.45;;;10.20;99.90;;;10.48;55.36;102669.34;5075739;28;20094;-78
2021/04/25 04:49:47;;;;;;;13.43;8.02;;;10.20;99.90;;;10.46;55.13;102666.69;5075374;28;20059;-78
2021/04/25 04:52:15;;;;;;;12.23;8.07;;;10.20;99.90;;;10.59;54.92;102667.84;5075055;28;20040;-78
2021/04/25 04:54:42;;;;;;;13.45;8.32;;;10.40;99.90;;;10.54;55.29;102674.81;5074969;28;20060;-77
2021/04/25 04:57:11;;;;;;;13.80;8.18;;;10.30;99.90;;;10.48;54.62;102667.63;5075105;28;20044;-78
2021/04/25 04:59:38;;;;;;;16.95;8.80;;;10.30;99.90;;;10.38;54.57;102673.53;5075242;28;20048;-77
2021/04/25 05:02:05;;;;;;;12.98;8.73;;;10.20;99.90;;;10.24;54.27;102674.03;5057098;28;20064;-78
2021/04/25 05:04:33;;;;;;;13.93;8.02;;;10.10;99.90;;;10.32;54.60;102659.25;5075233;28;20055;-77
2021/04/25 05:07:01;;;;;;;13.77;7.55;;;10.10;99.90;;;10.32;54.78;102661.88;5074781;28;20106;-78
2021/04/25 05:09:29;;;;;;;10.10;7.97;;;10.10;99.90;;;9.92;54.48;102607.97;5073691;28;20087;-77
2021/04/25 05:11:56;;;;;;;13.93;7.82;;;10.00;99.90;;;10.18;54.58;102658.00;5073619;28;20056;-78
2021/04/25 05:14:24;;;;;;;15.07;8.02;;;10.00;99.90;;;10.19;54.16;102655.41;5074820;28;20072;-78
2021/04/25 05:16:51;;;;;;;12.95;7.63;;;10.00;99.90;;;10.28;54.16;102681.22;5075083;28;20426;-78
2021/04/25 05:19:19;;;;;;;12.43;7.50;;;10.10;99.90;;;10.29;53.95;102681.25;5073580;28;20063;-77
2021/04/25 05:21:46;;;;;;;13.13;7.70;;;10.10;99.90;;;10.21;53.53;102689.81;5075342;28;20086;-78
2021/04/25 05:24:15;;;;;;;13.43;7.68;;;10.00;99.90;;;9.51;53.91;102581.28;5055745;28;20084;-77
2021/04/25 05:26:42;;;;;;;9.70;7.57;;;9.90;99.90;;;10.08;53.48;102690.31;5074399;28;20055;-78
2021/04/25 05:29:09;;;;;;;15.55;8.15;;;9.90;99.90;;;10.10;53.87;102688.66;5074304;28;20048;-78
2021/04/25 05:31:38;;;;;;;15.15;8.77;;;9.90;99.90;;;9.31;53.38;102566.66;5074319;28;20036;-78
2021/04/25 05:34:05;;;;;;;12.55;8.15;;;9.80;99.90;;;10.01;53.16;102694.53;5074655;28;20472;-78
2021/04/25 05:36:33;;;;;;;13.70;7.63;;;9.80;99.90;;;10.06;53.00;102694.66;5074145;28;20073;-79
2021/04/25 05:39:01;;;;;;;13.02;7.75;;;9.80;99.90;;;10.00;52.94;102701.59;5074476;28;20105;-78
2021/04/25 05:41:29;;;;;;;14.63;7.72;;;9.80;99.90;;;9.95;53.13;102687.34;5072991;28;20155;-79
2021/04/25 05:43:57;;;;;;;10.38;7.63;;;9.90;99.90;;;9.91;53.26;102706.59;5074304;28;20380;-79
2021/04/25 05:46:24;;;;;;;15.65;7.78;;;9.80;99.90;;;9.83;53.19;102712.56;5074070;28;20052;-78
2021/04/25 05:48:52;;;;;;;11.43;7.88;;;9.70;99.90;;;9.98;52.86;102716.53;5074010;28;20041;-78
2021/04/25 05:51:20;;;;;;;10.85;7.53;;;9.80;99.90;;;9.99;52.68;102727.97;5074148;28;20045;-79
2021/04/25 05:53:47;;;;;;;11.50;7.40;;;9.70;99.90;;;9.85;52.66;102713.50;5074152;28;20037;-79
2021/04/25 05:56:15;;;;;;;14.02;7.78;;;9.70;99.90;;;9.95;52.45;102713.78;5073876;28;20052;-79
2021/04/25 05:58:44;;;;;;;13.95;7.07;;;9.70;99.90;;;9.95;52.49;102710.22;5074013;28;20462;-78
2021/04/25 06:01:12;;;;;;;13.07;6.43;;;9.70;99.90;;;10.00;52.60;102703.34;5073579;28;20519;-78
2021/04/25 06:03:39;;;;;;;16.17;7.35;;;9.80;99.90;;;10.09;53.14;102716.78;5074220;28;20041;-78
2021/04/25 06:06:07;;;;;;;15.05;7.32;;;9.90;99.90;;;10.03;52.68;102714.88;5073600;28;20553;-75
2021/04/25 06:08:39;;;;;;;13.40;7.53;;;9.80;99.90;;;9.40;52.88;102596.84;5073915;28;20102;-77
2021/04/25 06:11:07;;;;;;;12.10;8.20;;;9.90;99.90;;;10.14;52.93;102724.91;5073833;28;20041;-77
2021/04/25 06:13:34;;;;;;;11.57;8.70;;;9.90;99.90;;;10.23;52.87;102726.03;5073324;28;20139;-77
2021/04/25 06:16:03;;;;;;;11.68;8.10;;;10.00;99.90;;;10.27;52.71;102727.00;5073590;28;20047;-78
2021/04/25 06:18:32;;;;;;;15.25;8.13;;;10.00;99.90;;;10.18;53.02;102726.78;5073394;28;20040;-78
2021/04/25 06:20:59;;;;;;;12.20;7.68;;;10.00;99.90;;;10.21;52.93;102740.97;5072325;28;20036;-77
2021/04/25 06:23:27;;;;;;;19.90;7.75;;;10.00;99.90;;;10.30;52.57;102730.63;5073310;28;20131;-78
2021/04/25 06:25:55;;;;;;;14.73;7.90;;;10.10;99.90;;;10.37;52.41;102731.69;5055657;28;20053;-78
2021/04/25 06:28:27;;;;;;;13.27;7.80;;;10.10;99.90;;;10.30;52.53;102719.16;5073440;28;20045;-78
2021/04/25 06:30:55;;;;;;;11.27;7.72;;;10.10;99.90;;;10.25;52.85;102711.09;5073185;28;20059;-78
2021/04/25 06:33:24;;;;;;;16.08;7.80;;;10.10;99.90;;;10.28;53.10;102718.22;5072225;28;20037;-78
2021/04/25 06:35:52;;;;;;;13.02;7.15;;;10.10;99.90;;;10.30;52.60;102735.03;5073039;28;20048;-78
2021/04/25 06:38:19;;;;;;;11.18;8.43;;;10.10;99.90;;;10.35;52.49;102730.75;5073359;28;20048;-77
2021/04/25 06:40:47;;;;;;;12.10;7.38;;;10.10;99.90;;;10.32;52.47;102734.19;5073035;28;20067;-78
2021/04/25 06:43:15;;;;;;;16.10;7.95;;;10.10;99.90;;;10.23;52.21;102730.41;5072931;28;20496;-77
2021/04/25 06:45:46;;;;;;;11.00;7.35;;;10.10;99.90;;;10.23;52.77;102736.63;5054785;28;20059;-77
2021/04/25 06:48:14;;;;;;;13.77;8.15;;;10.00;99.90;;;10.16;52.35;102737.31;5072824;28;20492;-78
2021/04/25 06:50:43;;;;;;;17.38;8.07;;;10.00;99.90;;;10.13;52.64;102731.03;5071714;28;20148;-78
2021/04/25 06:53:10;;;;;;;13.85;7.45;;;9.90;99.90;;;10.14;52.90;102725.81;5072670;28;20499;-77
2021/04/25 06:55:38;;;;;;;14.85;7.55;;;9.90;99.90;;;10.19;52.86;102732.09;5071709;28;20040;-78
2021/04/25 06:58:05;;;;;;;14.07;7.18;;;9.90;99.90;;;10.16;52.56;102734.66;5073043;28;20499;-78
2021/04/25 07:00:33;;;;;;;12.63;6.93;;;10.00;99.90;;;10.20;52.25;102735.63;5054915;28;20094;-78
2021/04/25 07:03:00;;;;;;;14.82;7.60;;;10.00;99.90;;;10.21;52.64;102740.06;5072410;28;20484;-78
2021/04/25 07:05:28;;;;;;;10.80;7.05;;;10.00;99.90;;;10.23;52.17;102743.66;5072882;28;20121;-78
2021/04/25 07:07:57;;;;;;;20.17;7.70;;;10.00;99.90;;;10.21;52.06;102737.41;5054857;28;20450;-78
2021/04/25 07:10:25;;;;;;;14.15;7.75;;;10.00;99.90;;;10.26;51.56;102734.03;5072891;28;20462;-78
2021/04/25 07:12:53;;;;;;;13.35;7.07;;;10.10;99.90;;;10.13;52.02;102723.09;5072761;28;20052;-78
2021/04/25 07:15:20;;;;;;;16.48;7.65;;;10.00;99.90;;;10.13;52.14;102738.94;5072633;28;20041;-78
2021/04/25 07:17:48;;;;;;;15.00;7.30;;;10.00;99.90;;;10.09;52.08;102747.63;5072638;28;20416;-78
2021/04/25 07:20:18;;;;;;;15.30;7.82;;;9.90;99.90;;;9.93;52.06;102739.25;5072479;28;20411;-78
2021/04/25 07:22:46;;;;;;;17.38;6.80;;;9.80;99.90;;;9.92;51.90;102741.88;5072829;28;20053;-77
2021/04/25 07:25:14;;;;;;;18.92;7.85;;;9.80;99.90;;;9.91;52.17;102748.91;5072858;28;20044;-76
2021/04/25 07:27:42;;;;;;;12.00;7.13;;;9.70;99.90;;;10.07;52.87;102749.31;5072839;28;20044;-77
2021/04/25 07:30:11;;;;;;;11.45;6.78;;;9.80;99.90;;;10.09;52.62;102755.56;5073367;28;20046;-76
2021/04/25 07:32:39;;;;;;;12.10;5.97;;;9.90;99.90;;;9.98;52.23;102745.59;5073295;28;20052;-76
2021/04/25 07:35:08;;;;;;;13.10;6.82;;;9.90;99.90;;;10.17;51.99;102762.88;5072280;28;20143;-76
2021/04/25 07:37:36;;;;;;;12.23;6.10;;;9.90;99.90;;;10.20;51.60;102754.16;5072930;28;20491;-76
2021/04/25 07:40:04;;;;;;;13.70;5.90;;;10.00;99.90;;;10.26;51.75;102756.97;5073462;28;20056;-77
2021/04/25 07:42:33;;;;;;;13.57;5.97;;;10.00;99.90;;;10.26;51.13;102762.25;5073070;28;20045;-77
2021/04/25 07:45:03;;;;;;;11.60;6.20;;;10.10;99.90;;;10.36;51.31;102751.03;5072387;28;20094;-76
2021/04/25 07:47:30;;;;;;;9.85;5.45;;;10.10;99.90;;;10.48;51.45;102759.31;5075742;28;20052;-75
2021/04/25 07:49:58;;;;;;;13.95;5.85;;;10.20;99.90;;;10.59;51.67;102760.47;5076456;28;20071;-75
2021/04/25 07:52:26;;;;;;;11.60;6.63;;;10.30;99.90;;;10.58;51.39;102762.25;5076468;28;20072;-69
2021/04/25 07:54:53;;;;;;;14.75;5.60;;;10.40;99.90;;;10.57;51.54;102741.00;5075035;28;20395;-69
2021/04/25 07:57:21;;;;;;;9.40;5.57;;;10.40;99.90;;;10.68;51.38;102763.38;5075968;28;20040;-69
2021/04/25 07:59:49;;;;;;;9.38;5.85;;;10.50;99.90;;;10.66;51.35;102765.09;5058538;28;20053;-69
2021/04/25 08:02:17;;;;;;;13.65;5.82;;;10.50;99.90;;;10.58;51.48;102735.78;5076502;28;20044;-75
2021/04/25 08:04:44;;;;;;;10.77;5.72;;;10.50;99.90;;;10.68;50.95;102750.16;5076318;28;20110;-80
2021/04/25 08:07:11;;;;;;;13.98;5.88;;;10.50;99.90;;;10.64;51.29;102743.00;5076155;28;20476;-74
2021/04/25 08:09:39;;;;;;;14.50;6.15;;;10.50;99.90;;;10.61;51.13;102753.47;5076024;28;20449;-78
2021/04/25 08:12:07;;;;;;;13.02;6.10;;;10.40;99.90;;;10.66;51.40;102751.84;5076055;28;20106;-72
2021/04/25 08:14:35;;;;;;;11.63;5.60;;;10.50;99.90;;;10.77;51.52;102753.00;5076026;28;20056;-80
2021/04/25 08:17:04;;;;;;;13.35;5.85;;;10.50;99.90;;;10.75;51.32;102760.94;5057891;28;20054;-80
2021/04/25 08:19:32;;;;;;;13.32;5.75;;;10.60;99.90;;;10.59;51.28;102752.53;5075838;28;20045;-77
2021/04/25 08:21:59;;;;;;;13.32;6.03;;;10.50;99.90;;;10.04;50.64;102653.19;5075675;28;20053;-80
2021/04/25 08:24:27;;;;;;;11.68;5.68;;;10.40;99.90;;;10.65;51.40;102753.59;5075419;28;20538;-74
2021/04/25 08:26:54;;;;;;;13.32;5.63;;;10.40;99.90;;;10.71;51.20;102759.06;5075357;28;20631;-81
2021/04/25 08:29:26;;;;;;;10.30;5.55;;;10.50;99.90;;;10.64;51.35;102750.94;5075593;28;20063;-78
2021/04/25 08:31:53;;;;;;;12.38;5.30;;;10.50;99.90;;;10.44;51.95;102753.06;5076067;28;20044;-73
2021/04/25 08:34:22;;;;;;;12.68;5.82;;;10.30;99.90;;;10.46;51.59;102731.91;5075545;28;20077;-73
2021/04/25 08:36:49;;;;;;;12.73;6.13;;;10.30;99.90;;;10.57;52.61;102760.44;5075141;28;20048;-74
2021/04/25 08:39:16;;;;;;;14.48;5.90;;;10.40;99.90;;;10.69;52.73;102755.47;5074219;28;20519;-73
2021/04/25 08:41:47;;;;;;;16.80;5.93;;;10.50;99.90;;;10.70;52.30;102745.78;5057254;28;20072;-74
2021/04/25 08:44:19;;;;;;;11.02;5.65;;;10.60;99.90;;;10.71;51.86;102771.38;5075530;28;20048;-70
2021/04/25 08:46:48;;;;;;;17.13;6.72;;;10.60;99.90;;;10.89;52.30;102754.22;5057325;28;20495;-73
2021/04/25 08:49:18;;;;;;;20.92;6.38;;;10.60;99.90;;;11.03;52.29;102751.00;5075710;28;20043;-78
2021/04/25 08:51:48;;;;;;;12.20;6.00;;;10.80;99.90;;;11.16;51.66;102750.44;5075312;28;20131;-73
2021/04/25 08:54:16;;;;;;;13.02;6.28;;;10.90;99.90;;;10.53;51.67;102638.63;5075248;28;20040;-71
2021/04/25 08:56:43;;;;;;;15.63;5.72;;;11.00;99.90;;;11.20;51.53;102744.34;5075008;28;20090;-69
2021/04/25 08:59:13;;;;;;;13.75;6.07;;;11.00;99.90;;;11.29;51.07;102739.25;5057194;28;20446;-78
2021/04/25 09:01:41;;;;;;;12.55;5.47;;;11.10;99.90;;;11.35;51.28;102742.03;5075461;28;20049;-73
2021/04/25 09:04:08;;;;;;;12.25;6.30;;;11.10;99.90;;;11.41;50.85;102737.78;5074961;28;20121;-72
2021/04/25 09:06:36;;;;;;;14.63;6.15;;;11.20;99.90;;;11.47;50.98;102742.31;5074863;28;20098;-75
2021/04/25 09:09:07;;;;;;;14.55;5.88;;;11.20;99.90;;;11.43;51.26;102754.63;5074869;28;20395;-73
2021/04/25 09:11:37;;;;;;;11.82;6.25;;;11.20;99.90;;;11.43;50.67;102757.25;5074857;28;20040;-72
2021/04/25 09:14:20;;;;;;;16.52;6.10;;;11.20;99.90;;;11.28;50.19;102743.69;5075308;28;20048;-73
2021/04/25 09:16:59;;;;;;;12.18;5.65;;;11.20;99.90;;;11.33;49.66;102749.97;5074673;28;20051;-78
2021/04/25 09:19:50;;;;;;;12.25;5.25;;;11.10;99.90;;;11.44;49.05;102740.50;5056990;28;20047;-78
2021/04/25 09:22:19;;;;;;;11.77;4.95;;;11.30;99.90;;;11.39;48.87;102751.84;5056742;28;20059;-72
2021/04/25 09:24:48;;;;;;;13.10;5.20;;;11.20;99.90;;;11.58;48.73;102733.75;5074293;28;20049;-74
2021/04/25 09:27:27;;;;;;;11.18;6.00;;;11.40;99.90;;;11.81;47.75;102728.06;5074507;28;20106;-74
2021/04/25 09:29:58;;;;;;;11.73;5.30;;;11.60;99.90;;;11.78;48.62;102724.50;5074499;28;20045;-80
2021/04/25 09:32:29;;;;;;;11.57;5.30;;;11.70;99.90;;;12.06;47.63;102736.53;5056476;28;20044;-80
2021/04/25 09:35:16;;;;;;;11.57;5.00;;;11.90;99.90;;;12.25;47.60;102736.00;5056003;28;20397;-81
2021/04/25 09:37:46;;;;;;;11.93;4.80;;;12.00;99.90;;;12.38;46.91;102729.19;5073988;28;20128;-83
2021/04/25 09:40:18;;;;;;;8.75;5.00;;;12.20;99.90;;;12.28;46.70;102740.47;5073730;28;20057;-82
2021/04/25 09:43:01;;;;;;;12.73;5.70;;;12.20;99.90;;;12.22;46.61;102735.06;5074289;28;20117;-83
2021/04/25 09:45:32;;;;;;;12.60;5.60;;;12.10;99.90;;;12.45;46.83;102753.19;5074421;28;20043;-82
2021/04/25 09:48:02;;;;;;;11.90;5.93;;;12.30;99.90;;;12.50;46.51;102751.50;5074384;28;20052;-84
2021/04/25 09:50:31;;;;;;;8.98;4.97;;;12.30;99.90;;;12.37;46.47;102748.59;5073892;28;20044;-80
2021/04/25 09:52:59;;;;;;;9.95;5.35;;;12.30;99.90;;;11.91;46.44;102642.50;5073984;28;20106;-83
2021/04/25 09:55:32;;;;;;;17.13;5.65;;;12.30;99.90;;;12.66;46.48;102757.97;5074496;28;20044;-80
2021/04/25 09:58:08;;;;;;;11.02;5.60;;;12.40;99.90;;;12.67;46.28;102743.84;5074040;28;20066;-81
2021/04/25 10:00:41;;;;;;;14.15;5.55;;;12.50;99.90;;;12.36;46.23;102694.66;5055966;28;20087;-81
2021/04/25 10:03:10;;;;;;;14.98;5.53;;;12.60;99.90;;;12.74;46.07;102747.53;5073241;28;20784;-85
2021/04/25 10:05:56;;;;;;;11.80;5.38;;;12.60;99.90;;;12.65;46.44;102740.28;5073773;28;20147;-77
2021/04/25 10:08:28;;;;;;;12.63;5.38;;;12.50;99.90;;;12.44;46.44;102726.63;5073447;28;20048;-73
2021/04/25 10:11:02;;;;;;;13.55;5.68;;;12.40;99.90;;;12.29;46.45;102739.63;5072166;28;20060;-75
2021/04/25 10:13:30;;;;;;;11.05;5.38;;;12.20;99.90;;;12.33;47.25;102730.88;5073232;28;20496;-77